sensor_id;sensor_type;location;lat;lon;timestamp;pressure;altitude;pressure_sealevel;temperature;humidity
5952;BME280;3001;42.622;23.194;2024-01-07T00:01:27;89802.63;;;19.98;38.11
5952;BME280;3001;42.622;23.194;2024-01-07T00:03:55;89792.34;;;19.70;38.88
5952;BME280;3001;42.622;23.194;2024-01-07T00:06:21;89791.59;;;19.70;39.26
5952;BME280;3001;42.622;23.194;2024-01-07T00:08:48;89778.94;;;19.54;39.75
5952;BME280;3001;42.622;23.194;2024-01-07T00:11:15;89771.66;;;19.69;39.39
5952;BME280;3001;42.622;23.194;2024-01-07T00:13:41;89773.16;;;19.70;39.20
5952;BME280;3001;42.622;23.194;2024-01-07T00:16:08;89767.78;;;19.80;39.29
5952;BME280;3001;42.622;23.194;2024-01-07T00:18:35;89765.25;;;19.70;39.79
5952;BME280;3001;42.622;23.194;2024-01-07T00:21:03;89765.78;;;19.91;39.17
5952;BME280;3001;42.622;23.194;2024-01-07T00:23:30;89761.69;;;19.87;38.71
5952;BME280;3001;42.622;23.194;2024-01-07T00:25:57;89773.59;;;20.05;38.36
5952;BME280;3001;42.622;23.194;2024-01-07T00:28:24;89774.09;;;20.27;38.45
5952;BME280;3001;42.622;23.194;2024-01-07T00:30:50;89753.56;;;20.11;38.56
5952;BME280;3001;42.622;23.194;2024-01-07T00:33:17;89734.97;;;20.22;37.77
5952;BME280;3001;42.622;23.194;2024-01-07T00:35:43;89736.03;;;19.91;38.60
5952;BME280;3001;42.622;23.194;2024-01-07T00:38:11;89739.22;;;19.75;39.09
5952;BME280;3001;42.622;23.194;2024-01-07T00:40:38;89728.41;;;19.66;39.79
5952;BME280;3001;42.622;23.194;2024-01-07T00:43:05;89727.91;;;19.78;39.47
5952;BME280;3001;42.622;23.194;2024-01-07T00:45:31;89725.72;;;19.70;40.16
5952;BME280;3001;42.622;23.194;2024-01-07T00:47:58;89702.50;;;19.61;40.34
5952;BME280;3001;42.622;23.194;2024-01-07T00:50:25;89700.63;;;19.58;40.90
5952;BME280;3001;42.622;23.194;2024-01-07T00:52:51;89697.47;;;19.40;41.55
5952;BME280;3001;42.622;23.194;2024-01-07T00:55:19;89695.28;;;19.32;42.31
5952;BME280;3001;42.622;23.194;2024-01-07T00:57:47;89683.16;;;19.41;42.29
5952;BME280;3001;42.622;23.194;2024-01-07T01:00:14;89681.16;;;19.49;42.17
5952;BME280;3001;42.622;23.194;2024-01-07T01:02:41;89680.22;;;19.69;41.89
5952;BME280;3001;42.622;23.194;2024-01-07T01:05:08;89675.94;;;19.82;41.70
5952;BME280;3001;42.622;23.194;2024-01-07T01:07:35;89668.28;;;19.91;41.43
5952;BME280;3001;42.622;23.194;2024-01-07T01:10:01;89667.22;;;20.19;40.79
5952;BME280;3001;42.622;23.194;2024-01-07T01:12:29;89665.50;;;20.05;40.73
5952;BME280;3001;42.622;23.194;2024-01-07T01:14:56;89665.41;;;20.12;40.72
5952;BME280;3001;42.622;23.194;2024-01-07T01:17:23;89670.94;;;20.21;40.56
5952;BME280;3001;42.622;23.194;2024-01-07T01:19:49;89670.91;;;20.25;40.46
5952;BME280;3001;42.622;23.194;2024-01-07T01:22:16;89656.78;;;20.12;40.87
5952;BME280;3001;42.622;23.194;2024-01-07T01:24:43;89653.22;;;20.22;40.74
5952;BME280;3001;42.622;23.194;2024-01-07T01:27:11;89637.88;;;20.17;40.67
5952;BME280;3001;42.622;23.194;2024-01-07T01:29:39;89626.66;;;20.09;40.79
5952;BME280;3001;42.622;23.194;2024-01-07T01:32:06;89616.00;;;20.16;40.46
5952;BME280;3001;42.622;23.194;2024-01-07T01:34:33;89616.00;;;20.16;40.27
5952;BME280;3001;42.622;23.194;2024-01-07T01:37:00;89604.66;;;20.19;39.76
5952;BME280;3001;42.622;23.194;2024-01-07T01:39:27;89605.44;;;20.20;39.16
5952;BME280;3001;42.622;23.194;2024-01-07T01:41:54;89598.66;;;20.19;39.18
5952;BME280;3001;42.622;23.194;2024-01-07T01:44:21;89593.53;;;20.08;38.96
5952;BME280;3001;42.622;23.194;2024-01-07T01:46:49;89593.16;;;19.76;39.47
5952;BME280;3001;42.622;23.194;2024-01-07T01:49:16;89583.47;;;19.70;39.45
5952;BME280;3001;42.622;23.194;2024-01-07T01:51:43;89573.72;;;19.67;39.27
5952;BME280;3001;42.622;23.194;2024-01-07T01:54:10;89575.66;;;19.63;39.11
5952;BME280;3001;42.622;23.194;2024-01-07T01:56:37;89583.34;;;19.50;39.50
5952;BME280;3001;42.622;23.194;2024-01-07T01:59:04;89580.34;;;19.48;39.57
5952;BME280;3001;42.622;23.194;2024-01-07T02:01:31;89572.72;;;19.57;39.65
5952;BME280;3001;42.622;23.194;2024-01-07T02:03:59;89571.56;;;19.28;40.02
5952;BME280;3001;42.622;23.194;2024-01-07T02:06:26;89574.97;;;18.89;41.37
5952;BME280;3001;42.622;23.194;2024-01-07T02:08:53;89586.38;;;19.12;40.80
5952;BME280;3001;42.622;23.194;2024-01-07T02:11:20;89569.94;;;19.01;41.35
5952;BME280;3001;42.622;23.194;2024-01-07T02:13:47;89563.44;;;19.16;41.85
5952;BME280;3001;42.622;23.194;2024-01-07T02:16:14;89558.78;;;19.27;41.61
5952;BME280;3001;42.622;23.194;2024-01-07T02:18:43;89557.00;;;19.50;41.18
5952;BME280;3001;42.622;23.194;2024-01-07T02:21:13;89552.44;;;19.54;41.26
5952;BME280;3001;42.622;23.194;2024-01-07T02:23:40;89525.09;;;19.45;41.58
5952;BME280;3001;42.622;23.194;2024-01-07T02:26:08;89506.22;;;19.50;41.70
5952;BME280;3001;42.622;23.194;2024-01-07T02:28:35;89491.63;;;19.45;41.45
5952;BME280;3001;42.622;23.194;2024-01-07T02:31:02;89494.78;;;19.33;41.29
5952;BME280;3001;42.622;23.194;2024-01-07T02:33:28;89505.63;;;19.39;41.32
5952;BME280;3001;42.622;23.194;2024-01-07T02:35:56;89505.94;;;19.71;41.18
5952;BME280;3001;42.622;23.194;2024-01-07T02:38:22;89483.78;;;19.38;41.66
5952;BME280;3001;42.622;23.194;2024-01-07T02:40:49;89489.31;;;19.18;42.24
5952;BME280;3001;42.622;23.194;2024-01-07T02:43:17;89481.59;;;19.33;42.43
5952;BME280;3001;42.622;23.194;2024-01-07T02:45:44;89495.75;;;19.46;42.19
5952;BME280;3001;42.622;23.194;2024-01-07T02:48:10;89500.16;;;19.53;41.74
5952;BME280;3001;42.622;23.194;2024-01-07T02:50:37;89504.78;;;19.45;42.25
5952;BME280;3001;42.622;23.194;2024-01-07T02:53:04;89513.84;;;19.71;41.63
5952;BME280;3001;42.622;23.194;2024-01-07T02:55:31;89535.50;;;19.82;41.91
5952;BME280;3001;42.622;23.194;2024-01-07T02:57:57;89545.69;;;19.53;42.37
5952;BME280;3001;42.622;23.194;2024-01-07T03:00:25;89561.09;;;19.55;42.27
5952;BME280;3001;42.622;23.194;2024-01-07T03:02:52;89559.41;;;19.68;42.11
5952;BME280;3001;42.622;23.194;2024-01-07T03:05:19;89566.56;;;19.67;41.36
5952;BME280;3001;42.622;23.194;2024-01-07T03:07:45;89578.72;;;19.88;41.30
5952;BME280;3001;42.622;23.194;2024-01-07T03:10:12;89588.38;;;19.98;41.15
5952;BME280;3001;42.622;23.194;2024-01-07T03:12:39;89586.19;;;19.93;41.53
5952;BME280;3001;42.622;23.194;2024-01-07T03:15:06;89590.59;;;19.99;41.67
5952;BME280;3001;42.622;23.194;2024-01-07T03:17:35;89592.06;;;20.07;41.53
5952;BME280;3001;42.622;23.194;2024-01-07T03:20:02;89589.66;;;20.16;41.92
5952;BME280;3001;42.622;23.194;2024-01-07T03:22:29;89588.06;;;19.92;42.67
5952;BME280;3001;42.622;23.194;2024-01-07T03:24:55;89602.09;;;20.16;42.73
5952;BME280;3001;42.622;23.194;2024-01-07T03:27:22;89617.47;;;20.21;43.08
5952;BME280;3001;42.622;23.194;2024-01-07T03:29:49;89617.31;;;20.31;43.65
5952;BME280;3001;42.622;23.194;2024-01-07T03:32:15;89617.56;;;20.14;44.99
5952;BME280;3001;42.622;23.194;2024-01-07T03:34:44;89602.69;;;20.27;45.75
5952;BME280;3001;42.622;23.194;2024-01-07T03:37:11;89602.03;;;20.46;46.02
5952;BME280;3001;42.622;23.194;2024-01-07T03:39:37;89592.22;;;20.46;46.28
5952;BME280;3001;42.622;23.194;2024-01-07T03:42:04;89584.59;;;20.52;46.67
5952;BME280;3001;42.622;23.194;2024-01-07T03:44:36;89586.09;;;20.53;46.43
5952;BME280;3001;42.622;23.194;2024-01-07T03:47:03;89576.97;;;20.80;46.21
5952;BME280;3001;42.622;23.194;2024-01-07T03:49:30;89559.56;;;20.63;46.25
5952;BME280;3001;42.622;23.194;2024-01-07T03:51:58;89552.19;;;20.74;46.13
5952;BME280;3001;42.622;23.194;2024-01-07T03:54:24;89548.88;;;20.70;46.19
5952;BME280;3001;42.622;23.194;2024-01-07T03:56:51;89547.84;;;20.64;46.49
5952;BME280;3001;42.622;23.194;2024-01-07T03:59:18;89538.16;;;20.58;46.69
5952;BME280;3001;42.622;23.194;2024-01-07T04:01:44;89533.91;;;19.88;47.93
5952;BME280;3001;42.622;23.194;2024-01-07T04:04:11;89526.47;;;20.36;47.18
5952;BME280;3001;42.622;23.194;2024-01-07T04:06:39;89515.84;;;20.85;46.31
5952;BME280;3001;42.622;23.194;2024-01-07T04:09:07;89515.31;;;20.94;46.09
5952;BME280;3001;42.622;23.194;2024-01-07T04:11:39;89500.84;;;21.02;46.13
5952;BME280;3001;42.622;23.194;2024-01-07T04:14:05;89492.44;;;21.07;46.12
5952;BME280;3001;42.622;23.194;2024-01-07T04:16:32;89478.81;;;21.27;45.78
5952;BME280;3001;42.622;23.194;2024-01-07T04:18:59;89479.56;;;21.08;45.21
5952;BME280;3001;42.622;23.194;2024-01-07T04:21:25;89475.25;;;20.99;45.28
5952;BME280;3001;42.622;23.194;2024-01-07T04:23:53;89483.63;;;20.71;46.39
5952;BME280;3001;42.622;23.194;2024-01-07T04:26:21;89483.56;;;20.55;46.70
5952;BME280;3001;42.622;23.194;2024-01-07T04:28:48;89481.94;;;20.61;46.80
5952;BME280;3001;42.622;23.194;2024-01-07T04:31:14;89486.09;;;20.39;47.09
5952;BME280;3001;42.622;23.194;2024-01-07T04:33:41;89494.16;;;20.51;47.15
5952;BME280;3001;42.622;23.194;2024-01-07T04:36:08;89504.25;;;20.56;46.76
5952;BME280;3001;42.622;23.194;2024-01-07T04:38:35;89505.69;;;20.61;46.93
5952;BME280;3001;42.622;23.194;2024-01-07T04:41:02;89501.56;;;20.60;47.24
5952;BME280;3001;42.622;23.194;2024-01-07T04:43:30;89494.31;;;20.64;47.28
5952;BME280;3001;42.622;23.194;2024-01-07T04:45:57;89493.66;;;20.60;47.02
5952;BME280;3001;42.622;23.194;2024-01-07T04:48:23;89497.13;;;20.76;47.01
5952;BME280;3001;42.622;23.194;2024-01-07T04:50:50;89496.38;;;20.76;46.99
5952;BME280;3001;42.622;23.194;2024-01-07T04:53:16;89489.53;;;20.59;47.53
5952;BME280;3001;42.622;23.194;2024-01-07T04:55:43;89497.38;;;20.85;46.83
5952;BME280;3001;42.622;23.194;2024-01-07T04:58:10;89498.91;;;20.83;46.85
5952;BME280;3001;42.622;23.194;2024-01-07T05:00:38;89495.28;;;20.96;46.48
5952;BME280;3001;42.622;23.194;2024-01-07T05:03:05;89504.22;;;20.79;47.21
5952;BME280;3001;42.622;23.194;2024-01-07T05:05:31;89503.16;;;20.77;47.09
5952;BME280;3001;42.622;23.194;2024-01-07T05:07:58;89497.09;;;20.57;47.82
5952;BME280;3001;42.622;23.194;2024-01-07T05:10:26;89493.03;;;20.52;48.22
5952;BME280;3001;42.622;23.194;2024-01-07T05:12:52;89500.97;;;20.49;47.67
5952;BME280;3001;42.622;23.194;2024-01-07T05:15:19;89493.13;;;20.68;46.94
5952;BME280;3001;42.622;23.194;2024-01-07T05:17:47;89499.31;;;20.58;47.05
5952;BME280;3001;42.622;23.194;2024-01-07T05:20:15;89496.09;;;20.70;47.09
5952;BME280;3001;42.622;23.194;2024-01-07T05:22:42;89496.16;;;20.67;47.17
5952;BME280;3001;42.622;23.194;2024-01-07T05:25:09;89490.78;;;20.74;46.85
5952;BME280;3001;42.622;23.194;2024-01-07T05:27:35;89489.53;;;20.59;47.51
5952;BME280;3001;42.622;23.194;2024-01-07T05:30:02;89482.44;;;20.75;47.05
5952;BME280;3001;42.622;23.194;2024-01-07T05:32:29;89478.56;;;20.83;46.77
5952;BME280;3001;42.622;23.194;2024-01-07T05:34:57;89475.44;;;20.88;46.57
5952;BME280;3001;42.622;23.194;2024-01-07T05:37:24;89484.13;;;21.08;46.13
5952;BME280;3001;42.622;23.194;2024-01-07T05:39:50;89479.84;;;21.14;45.82
5952;BME280;3001;42.622;23.194;2024-01-07T05:42:17;89468.94;;;20.93;46.32
5952;BME280;3001;42.622;23.194;2024-01-07T05:44:44;89463.09;;;20.82;46.77
5952;BME280;3001;42.622;23.194;2024-01-07T05:47:11;89460.94;;;20.77;46.77
5952;BME280;3001;42.622;23.194;2024-01-07T05:49:37;89453.31;;;20.59;47.12
5952;BME280;3001;42.622;23.194;2024-01-07T05:52:05;89442.22;;;21.10;45.92
5952;BME280;3001;42.622;23.194;2024-01-07T05:54:32;89448.31;;;21.07;45.85
5952;BME280;3001;42.622;23.194;2024-01-07T05:56:59;89458.47;;;21.44;44.83
5952;BME280;3001;42.622;23.194;2024-01-07T05:59:25;89458.78;;;21.10;45.68
5952;BME280;3001;42.622;23.194;2024-01-07T06:01:58;89457.03;;;21.23;45.48
5952;BME280;3001;42.622;23.194;2024-01-07T06:04:24;89451.91;;;21.32;45.36
5952;BME280;3001;42.622;23.194;2024-01-07T06:06:51;89463.09;;;21.40;45.03
5952;BME280;3001;42.622;23.194;2024-01-07T06:09:19;89463.75;;;21.44;44.95
5952;BME280;3001;42.622;23.194;2024-01-07T06:11:46;89465.00;;;21.39;44.81
5952;BME280;3001;42.622;23.194;2024-01-07T06:14:13;89451.47;;;21.53;44.00
5952;BME280;3001;42.622;23.194;2024-01-07T06:16:40;89452.78;;;21.45;44.33
5952;BME280;3001;42.622;23.194;2024-01-07T06:19:07;89455.50;;;21.42;44.52
5952;BME280;3001;42.622;23.194;2024-01-07T06:21:34;89461.69;;;21.16;45.23
5952;BME280;3001;42.622;23.194;2024-01-07T06:24:01;89462.84;;;21.34;44.69
5952;BME280;3001;42.622;23.194;2024-01-07T06:26:29;89464.69;;;21.18;44.73
5952;BME280;3001;42.622;23.194;2024-01-07T06:28:55;89467.72;;;21.36;44.23
5952;BME280;3001;42.622;23.194;2024-01-07T06:31:22;89476.66;;;21.22;44.92
5952;BME280;3001;42.622;23.194;2024-01-07T06:33:49;89473.63;;;21.05;45.26
5952;BME280;3001;42.622;23.194;2024-01-07T06:36:15;89482.72;;;20.81;45.01
5952;BME280;3001;42.622;23.194;2024-01-07T06:38:42;89470.09;;;21.11;44.13
5952;BME280;3001;42.622;23.194;2024-01-07T06:41:09;89478.50;;;21.25;43.81
5952;BME280;3001;42.622;23.194;2024-01-07T06:43:37;89474.41;;;21.40;43.92
5952;BME280;3001;42.622;23.194;2024-01-07T06:46:04;89489.72;;;21.49;43.29
5952;BME280;3001;42.622;23.194;2024-01-07T06:48:31;89486.03;;;21.43;43.61
5952;BME280;3001;42.622;23.194;2024-01-07T06:50:57;89479.63;;;21.63;43.15
5952;BME280;3001;42.622;23.194;2024-01-07T06:53:24;89478.84;;;21.82;42.79
5952;BME280;3001;42.622;23.194;2024-01-07T06:58:17;89495.34;;;21.86;42.47
5952;BME280;3001;42.622;23.194;2024-01-07T07:00:45;89487.03;;;21.88;41.71
5952;BME280;3001;42.622;23.194;2024-01-07T07:03:12;89484.13;;;21.82;41.90
5952;BME280;3001;42.622;23.194;2024-01-07T07:05:39;89488.81;;;21.75;42.42
5952;BME280;3001;42.622;23.194;2024-01-07T07:08:06;89484.19;;;21.79;42.11
5952;BME280;3001;42.622;23.194;2024-01-07T07:10:33;89488.50;;;21.89;41.77
5952;BME280;3001;42.622;23.194;2024-01-07T07:12:59;89489.03;;;21.64;42.67
5952;BME280;3001;42.622;23.194;2024-01-07T07:15:26;89486.19;;;21.91;41.88
5952;BME280;3001;42.622;23.194;2024-01-07T07:17:55;89483.03;;;21.80;42.21
5952;BME280;3001;42.622;23.194;2024-01-07T07:20:22;89484.53;;;21.97;41.82
5952;BME280;3001;42.622;23.194;2024-01-07T07:22:49;89478.81;;;21.47;41.78
5952;BME280;3001;42.622;23.194;2024-01-07T07:25:15;89474.84;;;21.55;42.35
5952;BME280;3001;42.622;23.194;2024-01-07T07:27:42;89472.41;;;21.64;42.38
5952;BME280;3001;42.622;23.194;2024-01-07T07:30:09;89475.31;;;21.34;42.44
5952;BME280;3001;42.622;23.194;2024-01-07T07:32:39;89485.88;;;21.14;42.69
5952;BME280;3001;42.622;23.194;2024-01-07T07:35:07;89485.03;;;20.79;43.59
5952;BME280;3001;42.622;23.194;2024-01-07T07:37:34;89473.56;;;20.66;43.97
5952;BME280;3001;42.622;23.194;2024-01-07T07:40:01;89472.13;;;21.04;43.29
5952;BME280;3001;42.622;23.194;2024-01-07T07:42:27;89468.31;;;21.79;41.91
5952;BME280;3001;42.622;23.194;2024-01-07T07:44:54;89455.94;;;21.21;42.75
5952;BME280;3001;42.622;23.194;2024-01-07T07:47:21;89460.56;;;21.52;42.59
5952;BME280;3001;42.622;23.194;2024-01-07T07:49:47;89457.66;;;21.66;41.50
5952;BME280;3001;42.622;23.194;2024-01-07T07:52:17;89465.28;;;21.80;41.66
5952;BME280;3001;42.622;23.194;2024-01-07T07:54:47;89467.94;;;21.96;41.78
5952;BME280;3001;42.622;23.194;2024-01-07T07:57:14;89451.03;;;21.74;40.78
5952;BME280;3001;42.622;23.194;2024-01-07T07:59:41;89452.41;;;21.98;40.46
5952;BME280;3001;42.622;23.194;2024-01-07T08:02:08;89452.63;;;21.72;40.34
5952;BME280;3001;42.622;23.194;2024-01-07T08:04:35;89461.91;;;22.12;40.20
5952;BME280;3001;42.622;23.194;2024-01-07T08:07:02;89471.34;;;22.13;39.63
5952;BME280;3001;42.622;23.194;2024-01-07T08:09:30;89461.34;;;22.20;39.92
5952;BME280;3001;42.622;23.194;2024-01-07T08:11:57;89475.38;;;22.33;39.21
5952;BME280;3001;42.622;23.194;2024-01-07T08:14:23;89474.38;;;22.27;39.88
5952;BME280;3001;42.622;23.194;2024-01-07T08:16:50;89469.78;;;22.47;38.96
5952;BME280;3001;42.622;23.194;2024-01-07T08:19:17;89463.47;;;22.25;39.06
5952;BME280;3001;42.622;23.194;2024-01-07T08:21:45;89477.31;;;22.49;38.09
5952;BME280;3001;42.622;23.194;2024-01-07T08:24:12;89463.06;;;22.59;38.19
5952;BME280;3001;42.622;23.194;2024-01-07T08:26:40;89462.41;;;22.55;38.58
5952;BME280;3001;42.622;23.194;2024-01-07T08:29:07;89452.97;;;22.70;38.22
5952;BME280;3001;42.622;23.194;2024-01-07T08:31:33;89459.03;;;22.83;37.96
5952;BME280;3001;42.622;23.194;2024-01-07T08:34:00;89467.50;;;22.78;37.80
5952;BME280;3001;42.622;23.194;2024-01-07T08:36:27;89463.06;;;22.27;39.34
5952;BME280;3001;42.622;23.194;2024-01-07T08:38:54;89454.97;;;22.50;38.48
5952;BME280;3001;42.622;23.194;2024-01-07T08:41:21;89450.97;;;22.74;38.37
5952;BME280;3001;42.622;23.194;2024-01-07T08:43:49;89450.47;;;22.63;38.16
5952;BME280;3001;42.622;23.194;2024-01-07T08:46:16;89449.13;;;22.42;38.03
5952;BME280;3001;42.622;23.194;2024-01-07T08:48:42;89444.34;;;22.94;38.01
5952;BME280;3001;42.622;23.194;2024-01-07T08:51:09;89447.69;;;22.22;38.05
5952;BME280;3001;42.622;23.194;2024-01-07T08:53:36;89443.06;;;22.86;38.13
5952;BME280;3001;42.622;23.194;2024-01-07T08:56:03;89443.22;;;23.07;37.54
5952;BME280;3001;42.622;23.194;2024-01-07T08:58:30;89454.56;;;22.80;38.86
5952;BME280;3001;42.622;23.194;2024-01-07T09:00:58;89449.84;;;22.87;37.68
5952;BME280;3001;42.622;23.194;2024-01-07T09:03:24;89444.88;;;22.45;38.87
5952;BME280;3001;42.622;23.194;2024-01-07T09:05:52;89443.44;;;22.72;38.41
5952;BME280;3001;42.622;23.194;2024-01-07T09:08:18;89441.31;;;22.95;38.10
5952;BME280;3001;42.622;23.194;2024-01-07T09:10:45;89453.13;;;22.91;38.56
5952;BME280;3001;42.622;23.194;2024-01-07T09:13:12;89446.50;;;22.99;38.20
5952;BME280;3001;42.622;23.194;2024-01-07T09:15:38;89450.97;;;23.02;37.88
5952;BME280;3001;42.622;23.194;2024-01-07T09:18:07;89456.75;;;22.97;37.37
5952;BME280;3001;42.622;23.194;2024-01-07T09:20:34;89457.88;;;22.84;37.19
5952;BME280;3001;42.622;23.194;2024-01-07T09:23:00;89457.41;;;22.73;37.35
5952;BME280;3001;42.622;23.194;2024-01-07T09:25:27;89471.13;;;22.84;38.23
5952;BME280;3001;42.622;23.194;2024-01-07T09:27:54;89464.50;;;23.20;37.61
5952;BME280;3001;42.622;23.194;2024-01-07T09:30:21;89478.41;;;23.24;37.81
5952;BME280;3001;42.622;23.194;2024-01-07T09:32:48;89479.16;;;23.37;37.72
5952;BME280;3001;42.622;23.194;2024-01-07T09:35:17;89473.34;;;23.29;38.26
5952;BME280;3001;42.622;23.194;2024-01-07T09:37:43;89476.34;;;23.44;37.64
5952;BME280;3001;42.622;23.194;2024-01-07T09:40:11;89468.94;;;23.51;37.67
5952;BME280;3001;42.622;23.194;2024-01-07T09:42:38;89465.97;;;23.74;36.48
5952;BME280;3001;42.622;23.194;2024-01-07T09:45:05;89465.22;;;23.61;36.86
5952;BME280;3001;42.622;23.194;2024-01-07T09:47:32;89463.44;;;23.71;37.07
5952;BME280;3001;42.622;23.194;2024-01-07T09:49:59;89458.41;;;23.35;36.75
5952;BME280;3001;42.622;23.194;2024-01-07T09:52:28;89465.53;;;23.63;36.85
5952;BME280;3001;42.622;23.194;2024-01-07T09:54:58;89442.41;;;23.51;37.01
5952;BME280;3001;42.622;23.194;2024-01-07T09:57:25;89458.75;;;23.75;36.80
5952;BME280;3001;42.622;23.194;2024-01-07T09:59:52;89462.50;;;23.24;37.36
5952;BME280;3001;42.622;23.194;2024-01-07T10:02:19;89450.06;;;23.49;37.25
5952;BME280;3001;42.622;23.194;2024-01-07T10:04:47;89460.19;;;23.26;37.39
5952;BME280;3001;42.622;23.194;2024-01-07T10:07:14;89464.59;;;23.16;37.84
5952;BME280;3001;42.622;23.194;2024-01-07T10:09:43;89455.44;;;23.33;37.65
5952;BME280;3001;42.622;23.194;2024-01-07T10:12:10;89450.19;;;23.17;37.35
5952;BME280;3001;42.622;23.194;2024-01-07T10:14:37;89447.56;;;23.01;37.61
5952;BME280;3001;42.622;23.194;2024-01-07T10:17:14;89429.50;;;23.53;36.99
5952;BME280;3001;42.622;23.194;2024-01-07T10:19:43;89436.25;;;23.01;37.39
5952;BME280;3001;42.622;23.194;2024-01-07T10:22:12;89423.00;;;23.42;37.46
5952;BME280;3001;42.622;23.194;2024-01-07T10:24:39;89426.31;;;23.58;36.92
5952;BME280;3001;42.622;23.194;2024-01-07T10:27:08;89417.47;;;23.36;37.03
5952;BME280;3001;42.622;23.194;2024-01-07T10:29:35;89410.06;;;23.44;37.05
5952;BME280;3001;42.622;23.194;2024-01-07T10:32:02;89399.03;;;23.58;36.64
5952;BME280;3001;42.622;23.194;2024-01-07T10:34:31;89412.97;;;23.08;36.71
5952;BME280;3001;42.622;23.194;2024-01-07T10:36:59;89415.38;;;23.44;36.39
5952;BME280;3001;42.622;23.194;2024-01-07T10:39:26;89411.78;;;23.50;36.23
5952;BME280;3001;42.622;23.194;2024-01-07T10:41:54;89404.53;;;23.26;36.89
5952;BME280;3001;42.622;23.194;2024-01-07T10:44:25;89404.16;;;23.52;36.42
5952;BME280;3001;42.622;23.194;2024-01-07T10:46:54;89405.50;;;23.32;36.67
5952;BME280;3001;42.622;23.194;2024-01-07T10:49:22;89402.09;;;23.19;37.05
5952;BME280;3001;42.622;23.194;2024-01-07T10:51:59;89411.53;;;23.32;36.65
5952;BME280;3001;42.622;23.194;2024-01-07T10:54:29;89401.03;;;23.29;37.00
5952;BME280;3001;42.622;23.194;2024-01-07T10:56:59;89407.19;;;23.26;37.01
5952;BME280;3001;42.622;23.194;2024-01-07T10:59:28;89404.75;;;22.91;36.88
5952;BME280;3001;42.622;23.194;2024-01-07T11:01:55;89411.28;;;22.86;37.76
5952;BME280;3001;42.622;23.194;2024-01-07T11:04:26;89393.59;;;23.11;37.04
5952;BME280;3001;42.622;23.194;2024-01-07T11:07:03;89397.84;;;23.34;36.67
5952;BME280;3001;42.622;23.194;2024-01-07T11:09:36;89391.97;;;22.73;36.98
5952;BME280;3001;42.622;23.194;2024-01-07T11:12:04;89398.50;;;23.38;36.35
5952;BME280;3001;42.622;23.194;2024-01-07T11:14:38;89395.56;;;23.61;36.01
5952;BME280;3001;42.622;23.194;2024-01-07T11:17:05;89400.56;;;23.71;36.12
5952;BME280;3001;42.622;23.194;2024-01-07T11:19:32;89390.38;;;23.57;36.18
5952;BME280;3001;42.622;23.194;2024-01-07T11:22:23;89398.84;;;23.65;35.97
5952;BME280;3001;42.622;23.194;2024-01-07T11:24:53;89395.03;;;23.66;36.47
5952;BME280;3001;42.622;23.194;2024-01-07T11:27:22;89398.75;;;23.81;35.48
5952;BME280;3001;42.622;23.194;2024-01-07T11:29:57;89407.84;;;23.42;36.04
5952;BME280;3001;42.622;23.194;2024-01-07T11:32:24;89401.81;;;23.54;36.00
5952;BME280;3001;42.622;23.194;2024-01-07T11:34:55;89400.88;;;23.61;35.94
5952;BME280;3001;42.622;23.194;2024-01-07T11:37:24;89404.78;;;23.56;35.98
5952;BME280;3001;42.622;23.194;2024-01-07T11:39:56;89397.34;;;23.39;36.19
5952;BME280;3001;42.622;23.194;2024-01-07T11:42:23;89410.81;;;23.03;36.99
5952;BME280;3001;42.622;23.194;2024-01-07T11:44:52;89405.84;;;23.71;36.13
5952;BME280;3001;42.622;23.194;2024-01-07T11:47:21;89392.69;;;23.55;36.56
5952;BME280;3001;42.622;23.194;2024-01-07T11:49:48;89396.00;;;23.84;36.28
5952;BME280;3001;42.622;23.194;2024-01-07T11:52:15;89387.94;;;23.63;36.75
5952;BME280;3001;42.622;23.194;2024-01-07T11:54:42;89391.44;;;23.97;36.85
5952;BME280;3001;42.622;23.194;2024-01-07T11:57:10;89400.84;;;24.23;36.16
5952;BME280;3001;42.622;23.194;2024-01-07T11:59:37;89398.19;;;24.23;35.53
5952;BME280;3001;42.622;23.194;2024-01-07T12:02:04;89391.91;;;24.30;35.75
5952;BME280;3001;42.622;23.194;2024-01-07T12:04:32;89399.41;;;24.56;36.88
5952;BME280;3001;42.622;23.194;2024-01-07T12:06:59;89395.28;;;24.55;35.38
5952;BME280;3001;42.622;23.194;2024-01-07T12:09:27;89400.22;;;24.66;35.42
5952;BME280;3001;42.622;23.194;2024-01-07T12:11:54;89406.72;;;24.06;35.95
5952;BME280;3001;42.622;23.194;2024-01-07T12:14:21;89403.09;;;23.87;36.61
5952;BME280;3001;42.622;23.194;2024-01-07T12:16:48;89405.53;;;24.07;36.13
5952;BME280;3001;42.622;23.194;2024-01-07T12:19:15;89399.38;;;24.10;35.96
5952;BME280;3001;42.622;23.194;2024-01-07T12:21:43;89399.66;;;24.24;36.00
5952;BME280;3001;42.622;23.194;2024-01-07T12:24:09;89405.63;;;24.03;36.26
5952;BME280;3001;42.622;23.194;2024-01-07T12:26:36;89404.88;;;24.15;36.05
5952;BME280;3001;42.622;23.194;2024-01-07T12:29:03;89405.09;;;24.08;36.41
5952;BME280;3001;42.622;23.194;2024-01-07T12:31:32;89404.25;;;24.11;35.88
5952;BME280;3001;42.622;23.194;2024-01-07T12:33:59;89401.63;;;24.11;36.09
5952;BME280;3001;42.622;23.194;2024-01-07T12:36:29;89400.13;;;23.98;36.06
5952;BME280;3001;42.622;23.194;2024-01-07T12:38:58;89404.34;;;24.20;35.94
5952;BME280;3001;42.622;23.194;2024-01-07T12:41:25;89407.34;;;24.10;36.14
5952;BME280;3001;42.622;23.194;2024-01-07T12:43:51;89405.59;;;24.28;35.77
5952;BME280;3001;42.622;23.194;2024-01-07T12:46:18;89411.88;;;24.09;36.16
5952;BME280;3001;42.622;23.194;2024-01-07T12:48:45;89415.25;;;24.35;35.88
5952;BME280;3001;42.622;23.194;2024-01-07T12:51:12;89414.47;;;24.59;35.91
5952;BME280;3001;42.622;23.194;2024-01-07T12:53:38;89422.16;;;24.32;36.18
5952;BME280;3001;42.622;23.194;2024-01-07T12:56:06;89416.88;;;24.07;36.58
5952;BME280;3001;42.622;23.194;2024-01-07T12:58:33;89417.03;;;24.38;36.30
5952;BME280;3001;42.622;23.194;2024-01-07T13:01:00;89423.00;;;24.42;35.69
5952;BME280;3001;42.622;23.194;2024-01-07T13:03:27;89427.69;;;24.13;36.38
5952;BME280;3001;42.622;23.194;2024-01-07T13:05:54;89431.75;;;24.05;36.20
5952;BME280;3001;42.622;23.194;2024-01-07T13:08:20;89427.41;;;23.86;36.46
5952;BME280;3001;42.622;23.194;2024-01-07T13:10:51;89428.78;;;24.03;36.26
5952;BME280;3001;42.622;23.194;2024-01-07T13:13:20;89432.56;;;24.39;36.14